sensor_id;sensor_type;location;lat;lon;timestamp;pressure;altitude;pressure_sealevel;temperature;humidity
20628;BME280;10473;42.734;24.258;2023-02-12T00:00:07;92569.63;;;-1.98;60.16
20628;BME280;10473;42.734;24.258;2023-02-12T00:02:44;92564.97;;;-2.01;60.16
20628;BME280;10473;42.734;24.258;2023-02-12T00:05:11;92565.03;;;-2.11;60.95
20628;BME280;10473;42.734;24.258;2023-02-12T00:07:43;92571.69;;;-2.00;60.73
20628;BME280;10473;42.734;24.258;2023-02-12T00:10:10;92562.03;;;-2.23;61.00
20628;BME280;10473;42.734;24.258;2023-02-12T00:12:38;92561.88;;;-2.36;61.42
20628;BME280;10473;42.734;24.258;2023-02-12T00:15:07;92557.91;;;-2.24;61.45
20628;BME280;10473;42.734;24.258;2023-02-12T00:17:35;92557.88;;;-2.19;60.76
20628;BME280;10473;42.734;24.258;2023-02-12T00:20:03;92560.09;;;-2.41;61.68
20628;BME280;10473;42.734;24.258;2023-02-12T00:22:31;92558.72;;;-2.33;61.55
20628;BME280;10473;42.734;24.258;2023-02-12T00:25:00;92554.53;;;-2.24;61.03
20628;BME280;10473;42.734;24.258;2023-02-12T00:27:27;92562.09;;;-2.28;60.62
20628;BME280;10473;42.734;24.258;2023-02-12T00:29:55;92563.66;;;-2.32;61.13
20628;BME280;10473;42.734;24.258;2023-02-12T00:32:23;92549.63;;;-2.31;60.79
20628;BME280;10473;42.734;24.258;2023-02-12T00:34:51;92563.22;;;-2.39;61.33
20628;BME280;10473;42.734;24.258;2023-02-12T00:37:19;92550.66;;;-2.65;61.46
20628;BME280;10473;42.734;24.258;2023-02-12T00:39:46;92550.34;;;-2.54;61.30
20628;BME280;10473;42.734;24.258;2023-02-12T00:42:15;92555.53;;;-2.59;61.73
20628;BME280;10473;42.734;24.258;2023-02-12T00:44:43;92550.16;;;-2.67;62.00
20628;BME280;10473;42.734;24.258;2023-02-12T00:47:11;92544.78;;;-2.81;62.71
20628;BME280;10473;42.734;24.258;2023-02-12T00:49:38;92562.84;;;-2.66;62.37
20628;BME280;10473;42.734;24.258;2023-02-12T00:52:06;92558.19;;;-2.69;62.06
20628;BME280;10473;42.734;24.258;2023-02-12T00:54:34;92559.50;;;-2.71;62.96
20628;BME280;10473;42.734;24.258;2023-02-12T00:57:02;92555.09;;;-2.71;62.27
20628;BME280;10473;42.734;24.258;2023-02-12T00:59:31;92542.09;;;-2.66;62.35
20628;BME280;10473;42.734;24.258;2023-02-12T01:02:01;92532.88;;;-2.82;62.30
20628;BME280;10473;42.734;24.258;2023-02-12T01:04:29;92534.88;;;-2.74;62.86
20628;BME280;10473;42.734;24.258;2023-02-12T01:06:56;92544.19;;;-2.68;62.14
20628;BME280;10473;42.734;24.258;2023-02-12T01:09:24;92537.88;;;-2.52;61.78
20628;BME280;10473;42.734;24.258;2023-02-12T01:11:52;92523.34;;;-2.53;61.58
20628;BME280;10473;42.734;24.258;2023-02-12T01:14:20;92521.28;;;-2.56;62.04
20628;BME280;10473;42.734;24.258;2023-02-12T01:16:49;92521.59;;;-2.62;62.03
20628;BME280;10473;42.734;24.258;2023-02-12T01:19:19;92520.34;;;-2.70;62.28
20628;BME280;10473;42.734;24.258;2023-02-12T01:21:46;92511.47;;;-2.64;61.91
20628;BME280;10473;42.734;24.258;2023-02-12T01:24:14;92505.41;;;-2.83;62.72
20628;BME280;10473;42.734;24.258;2023-02-12T01:26:42;92498.94;;;-2.85;62.40
20628;BME280;10473;42.734;24.258;2023-02-12T01:29:09;92510.75;;;-2.69;62.44
20628;BME280;10473;42.734;24.258;2023-02-12T01:31:38;92508.28;;;-2.84;63.02
20628;BME280;10473;42.734;24.258;2023-02-12T01:34:09;92504.91;;;-2.85;62.78
20628;BME280;10473;42.734;24.258;2023-02-12T01:36:38;92490.66;;;-2.87;62.62
20628;BME280;10473;42.734;24.258;2023-02-12T01:39:06;92484.91;;;-3.23;63.12
20628;BME280;10473;42.734;24.258;2023-02-12T01:41:35;92489.97;;;-2.98;62.92
20628;BME280;10473;42.734;24.258;2023-02-12T01:44:09;92483.09;;;-3.22;63.45
20628;BME280;10473;42.734;24.258;2023-02-12T01:46:37;92483.34;;;-3.24;63.10
20628;BME280;10473;42.734;24.258;2023-02-12T01:49:10;92465.16;;;-3.14;63.31
20628;BME280;10473;42.734;24.258;2023-02-12T01:51:39;92482.75;;;-3.06;62.37
20628;BME280;10473;42.734;24.258;2023-02-12T01:54:09;92469.41;;;-3.33;63.32
20628;BME280;10473;42.734;24.258;2023-02-12T01:56:38;92457.47;;;-3.29;63.17
20628;BME280;10473;42.734;24.258;2023-02-12T01:59:07;92469.31;;;-3.13;63.00
20628;BME280;10473;42.734;24.258;2023-02-12T02:01:35;92446.03;;;-3.18;63.17
20628;BME280;10473;42.734;24.258;2023-02-12T02:04:07;92454.75;;;-3.09;62.78
20628;BME280;10473;42.734;24.258;2023-02-12T02:06:42;92458.38;;;-3.48;64.43
20628;BME280;10473;42.734;24.258;2023-02-12T02:09:11;92455.66;;;-3.82;65.52
20628;BME280;10473;42.734;24.258;2023-02-12T02:11:40;92457.59;;;-3.54;64.80
20628;BME280;10473;42.734;24.258;2023-02-12T02:14:25;92443.03;;;-3.40;64.33
20628;BME280;10473;42.734;24.258;2023-02-12T02:17:21;92442.03;;;-3.44;64.25
20628;BME280;10473;42.734;24.258;2023-02-12T02:23:09;92423.88;;;-3.39;64.34
20628;BME280;10473;42.734;24.258;2023-02-12T02:28:58;92422.28;;;-3.35;64.61
20628;BME280;10473;42.734;24.258;2023-02-12T02:31:39;92402.16;;;-3.48;64.79
20628;BME280;10473;42.734;24.258;2023-02-12T02:34:10;92407.31;;;-3.43;64.66
20628;BME280;10473;42.734;24.258;2023-02-12T02:36:46;92405.44;;;-3.32;64.41
20628;BME280;10473;42.734;24.258;2023-02-12T02:39:21;92405.81;;;-3.54;65.31
20628;BME280;10473;42.734;24.258;2023-02-12T02:41:56;92398.56;;;-3.47;65.51
20628;BME280;10473;42.734;24.258;2023-02-12T02:44:30;92406.84;;;-3.50;65.45
20628;BME280;10473;42.734;24.258;2023-02-12T02:47:04;92409.97;;;-3.53;65.71
20628;BME280;10473;42.734;24.258;2023-02-12T02:49:38;92387.13;;;-3.41;65.28
20628;BME280;10473;42.734;24.258;2023-02-12T02:52:10;92419.88;;;-3.21;64.61
20628;BME280;10473;42.734;24.258;2023-02-12T02:54:40;92411.19;;;-3.40;65.33
20628;BME280;10473;42.734;24.258;2023-02-12T02:57:15;92417.81;;;-3.19;65.08
20628;BME280;10473;42.734;24.258;2023-02-12T02:59:47;92404.53;;;-3.08;64.07
20628;BME280;10473;42.734;24.258;2023-02-12T03:02:21;92412.44;;;-3.33;65.00
20628;BME280;10473;42.734;24.258;2023-02-12T03:04:51;92411.09;;;-3.25;64.78
20628;BME280;10473;42.734;24.258;2023-02-12T03:07:26;92429.22;;;-3.25;64.57
20628;BME280;10473;42.734;24.258;2023-02-12T03:09:58;92404.09;;;-3.25;64.44
20628;BME280;10473;42.734;24.258;2023-02-12T03:12:30;92399.13;;;-3.16;64.43
20628;BME280;10473;42.734;24.258;2023-02-12T03:15:04;92408.69;;;-3.12;64.24
20628;BME280;10473;42.734;24.258;2023-02-12T03:17:39;92409.56;;;-2.88;63.51
20628;BME280;10473;42.734;24.258;2023-02-12T03:20:15;92395.78;;;-2.83;63.65
20628;BME280;10473;42.734;24.258;2023-02-12T03:22:47;92397.56;;;-2.84;62.39
20628;BME280;10473;42.734;24.258;2023-02-12T03:25:19;92384.09;;;-2.81;61.61
20628;BME280;10473;42.734;24.258;2023-02-12T03:27:53;92394.09;;;-2.69;62.21
20628;BME280;10473;42.734;24.258;2023-02-12T03:30:30;92370.41;;;-2.58;62.56
20628;BME280;10473;42.734;24.258;2023-02-12T03:33:14;92392.06;;;-2.44;62.00
20628;BME280;10473;42.734;24.258;2023-02-12T03:35:51;92376.63;;;-2.59;62.42
20628;BME280;10473;42.734;24.258;2023-02-12T03:38:30;92377.72;;;-2.36;60.92
20628;BME280;10473;42.734;24.258;2023-02-12T03:41:04;92393.84;;;-2.16;59.98
20628;BME280;10473;42.734;24.258;2023-02-12T03:43:41;92387.94;;;-1.98;60.50
20628;BME280;10473;42.734;24.258;2023-02-12T03:46:20;92401.34;;;-1.91;60.42
20628;BME280;10473;42.734;24.258;2023-02-12T03:48:57;92382.72;;;-1.74;59.21
20628;BME280;10473;42.734;24.258;2023-02-12T03:51:29;92379.94;;;-1.59;58.06
20628;BME280;10473;42.734;24.258;2023-02-12T03:54:00;92372.53;;;-1.71;59.23
20628;BME280;10473;42.734;24.258;2023-02-12T03:56:33;92386.31;;;-1.52;58.44
20628;BME280;10473;42.734;24.258;2023-02-12T03:59:04;92385.84;;;-1.35;58.10
20628;BME280;10473;42.734;24.258;2023-02-12T04:01:33;92357.75;;;-1.33;58.07
20628;BME280;10473;42.734;24.258;2023-02-12T04:04:05;92368.38;;;-1.30;59.03
20628;BME280;10473;42.734;24.258;2023-02-12T04:06:33;92374.03;;;-1.28;59.23
20628;BME280;10473;42.734;24.258;2023-02-12T04:09:03;92354.72;;;-1.22;58.01
20628;BME280;10473;42.734;24.258;2023-02-12T04:11:41;92372.84;;;-1.17;58.64
20628;BME280;10473;42.734;24.258;2023-02-12T04:14:22;92353.47;;;-1.06;58.21
20628;BME280;10473;42.734;24.258;2023-02-12T04:16:59;92341.94;;;-1.00;58.37
20628;BME280;10473;42.734;24.258;2023-02-12T04:19:34;92351.19;;;-0.94;58.16
20628;BME280;10473;42.734;24.258;2023-02-12T04:22:14;92348.06;;;-0.77;58.92
20628;BME280;10473;42.734;24.258;2023-02-12T04:24:52;92341.72;;;-0.71;58.66
20628;BME280;10473;42.734;24.258;2023-02-12T04:27:32;92354.06;;;-0.63;58.89
20628;BME280;10473;42.734;24.258;2023-02-12T04:30:05;92351.50;;;-0.50;58.51
20628;BME280;10473;42.734;24.258;2023-02-12T04:32:39;92350.75;;;-0.10;58.45
20628;BME280;10473;42.734;24.258;2023-02-12T04:35:15;92358.88;;;0.03;57.26
20628;BME280;10473;42.734;24.258;2023-02-12T04:37:49;92371.41;;;0.28;56.37
20628;BME280;10473;42.734;24.258;2023-02-12T04:40:20;92376.00;;;0.44;57.31
20628;BME280;10473;42.734;24.258;2023-02-12T04:42:51;92385.09;;;0.60;56.05
20628;BME280;10473;42.734;24.258;2023-02-12T04:45:21;92388.44;;;0.74;55.00
20628;BME280;10473;42.734;24.258;2023-02-12T04:47:50;92395.84;;;0.80;56.00
20628;BME280;10473;42.734;24.258;2023-02-12T04:50:20;92387.91;;;0.85;54.96
20628;BME280;10473;42.734;24.258;2023-02-12T04:52:47;92399.31;;;0.89;55.43
20628;BME280;10473;42.734;24.258;2023-02-12T04:55:15;92402.19;;;0.88;55.80
20628;BME280;10473;42.734;24.258;2023-02-12T04:57:43;92404.69;;;0.93;55.52
20628;BME280;10473;42.734;24.258;2023-02-12T05:00:13;92426.53;;;0.97;55.04
20628;BME280;10473;42.734;24.258;2023-02-12T05:02:40;92427.78;;;0.99;53.84
20628;BME280;10473;42.734;24.258;2023-02-12T05:05:08;92417.44;;;0.94;54.73
20628;BME280;10473;42.734;24.258;2023-02-12T05:07:37;92426.69;;;1.00;54.66
20628;BME280;10473;42.734;24.258;2023-02-12T05:10:06;92437.53;;;1.08;55.33
20628;BME280;10473;42.734;24.258;2023-02-12T05:12:34;92451.31;;;1.08;54.94
20628;BME280;10473;42.734;24.258;2023-02-12T05:15:02;92453.22;;;0.94;55.11
20628;BME280;10473;42.734;24.258;2023-02-12T05:17:29;92437.88;;;1.14;53.21
20628;BME280;10473;42.734;24.258;2023-02-12T05:19:57;92444.44;;;1.12;53.34
20628;BME280;10473;42.734;24.258;2023-02-12T05:22:25;92446.66;;;1.18;53.53
20628;BME280;10473;42.734;24.258;2023-02-12T05:24:54;92455.28;;;1.19;54.35
20628;BME280;10473;42.734;24.258;2023-02-12T05:27:21;92464.03;;;1.37;53.24
20628;BME280;10473;42.734;24.258;2023-02-12T05:29:49;92471.75;;;1.42;53.01
20628;BME280;10473;42.734;24.258;2023-02-12T05:32:17;92464.47;;;1.38;52.25
20628;BME280;10473;42.734;24.258;2023-02-12T05:34:44;92472.19;;;1.43;51.65
20628;BME280;10473;42.734;24.258;2023-02-12T05:37:12;92481.50;;;1.36;53.53
20628;BME280;10473;42.734;24.258;2023-02-12T05:39:40;92462.84;;;1.42;52.41
20628;BME280;10473;42.734;24.258;2023-02-12T05:42:09;92488.88;;;1.20;52.79
20628;BME280;10473;42.734;24.258;2023-02-12T05:44:36;92498.56;;;1.20;53.07
20628;BME280;10473;42.734;24.258;2023-02-12T05:47:04;92490.22;;;1.32;52.85
20628;BME280;10473;42.734;24.258;2023-02-12T05:49:32;92493.09;;;1.43;53.71
20628;BME280;10473;42.734;24.258;2023-02-12T05:51:59;92490.13;;;1.37;53.73
20628;BME280;10473;42.734;24.258;2023-02-12T05:54:29;92493.31;;;1.33;53.56
20628;BME280;10473;42.734;24.258;2023-02-12T05:56:57;92489.44;;;1.31;54.11
20628;BME280;10473;42.734;24.258;2023-02-12T05:59:26;92502.66;;;1.48;53.68
20628;BME280;10473;42.734;24.258;2023-02-12T06:01:54;92497.50;;;1.57;53.84
20628;BME280;10473;42.734;24.258;2023-02-12T06:04:25;92489.19;;;1.54;54.16
20628;BME280;10473;42.734;24.258;2023-02-12T06:06:54;92497.22;;;1.58;55.72
20628;BME280;10473;42.734;24.258;2023-02-12T06:09:23;92491.78;;;1.54;54.28
20628;BME280;10473;42.734;24.258;2023-02-12T06:11:51;92503.06;;;1.63;53.36
20628;BME280;10473;42.734;24.258;2023-02-12T06:14:19;92503.56;;;1.66;52.30
20628;BME280;10473;42.734;24.258;2023-02-12T06:16:50;92504.44;;;1.61;54.25
20628;BME280;10473;42.734;24.258;2023-02-12T06:19:18;92506.75;;;1.63;53.66
20628;BME280;10473;42.734;24.258;2023-02-12T06:21:46;92504.03;;;1.67;54.38
20628;BME280;10473;42.734;24.258;2023-02-12T06:24:15;92509.47;;;1.79;53.58
20628;BME280;10473;42.734;24.258;2023-02-12T06:26:45;92519.34;;;1.83;53.62
20628;BME280;10473;42.734;24.258;2023-02-12T06:29:15;92519.41;;;1.69;53.13
20628;BME280;10473;42.734;24.258;2023-02-12T06:31:43;92508.34;;;1.72;53.25
20628;BME280;10473;42.734;24.258;2023-02-12T06:34:13;92526.63;;;1.72;54.79
20628;BME280;10473;42.734;24.258;2023-02-12T06:36:44;92540.00;;;1.71;54.35
20628;BME280;10473;42.734;24.258;2023-02-12T06:39:12;92510.16;;;1.49;54.71
20628;BME280;10473;42.734;24.258;2023-02-12T06:41:40;92510.50;;;1.34;54.48
20628;BME280;10473;42.734;24.258;2023-02-12T06:44:10;92527.13;;;1.38;55.39
20628;BME280;10473;42.734;24.258;2023-02-12T06:46:38;92518.78;;;1.50;55.01
20628;BME280;10473;42.734;24.258;2023-02-12T06:49:06;92523.00;;;1.59;54.63
20628;BME280;10473;42.734;24.258;2023-02-12T06:51:35;92535.00;;;1.61;54.50
20628;BME280;10473;42.734;24.258;2023-02-12T06:54:03;92548.41;;;1.67;54.36
20628;BME280;10473;42.734;24.258;2023-02-12T06:56:31;92552.47;;;1.73;53.52
20628;BME280;10473;42.734;24.258;2023-02-12T06:58:59;92555.06;;;1.73;53.92
20628;BME280;10473;42.734;24.258;2023-02-12T07:01:28;92546.44;;;1.87;54.01
20628;BME280;10473;42.734;24.258;2023-02-12T07:03:58;92541.44;;;1.77;52.88
20628;BME280;10473;42.734;24.258;2023-02-12T07:06:27;92518.44;;;1.29;53.49
20628;BME280;10473;42.734;24.258;2023-02-12T07:08:57;92561.84;;;1.74;54.08
20628;BME280;10473;42.734;24.258;2023-02-12T07:11:26;92557.31;;;1.67;52.54
20628;BME280;10473;42.734;24.258;2023-02-12T07:13:54;92541.38;;;1.68;53.06
20628;BME280;10473;42.734;24.258;2023-02-12T07:16:22;92563.34;;;1.89;52.47
20628;BME280;10473;42.734;24.258;2023-02-12T07:18:50;92549.22;;;1.90;52.86
20628;BME280;10473;42.734;24.258;2023-02-12T07:21:18;92552.34;;;1.78;53.63
20628;BME280;10473;42.734;24.258;2023-02-12T07:23:46;92552.34;;;1.78;54.34
20628;BME280;10473;42.734;24.258;2023-02-12T07:26:16;92555.22;;;1.91;54.11
20628;BME280;10473;42.734;24.258;2023-02-12T07:28:44;92552.72;;;1.86;54.15
20628;BME280;10473;42.734;24.258;2023-02-12T07:31:13;92553.47;;;2.00;52.85
20628;BME280;10473;42.734;24.258;2023-02-12T07:33:41;92547.09;;;2.14;53.56
20628;BME280;10473;42.734;24.258;2023-02-12T07:36:10;92550.16;;;2.16;54.10
20628;BME280;10473;42.734;24.258;2023-02-12T07:38:38;92565.44;;;2.45;53.67
20628;BME280;10473;42.734;24.258;2023-02-12T07:41:08;92572.13;;;2.59;52.91
20628;BME280;10473;42.734;24.258;2023-02-12T07:43:39;92579.56;;;2.66;52.21
20628;BME280;10473;42.734;24.258;2023-02-12T07:46:08;92581.69;;;2.64;52.40
20628;BME280;10473;42.734;24.258;2023-02-12T07:48:37;92582.28;;;2.61;52.79
20628;BME280;10473;42.734;24.258;2023-02-12T07:51:06;92577.78;;;2.53;53.24
20628;BME280;10473;42.734;24.258;2023-02-12T07:53:34;92576.47;;;1.98;53.37
20628;BME280;10473;42.734;24.258;2023-02-12T07:56:07;92581.28;;;1.68;53.85
20628;BME280;10473;42.734;24.258;2023-02-12T07:58:35;92589.66;;;1.92;54.80
20628;BME280;10473;42.734;24.258;2023-02-12T08:01:16;92602.25;;;1.91;53.30
20628;BME280;10473;42.734;24.258;2023-02-12T08:03:45;92582.16;;;1.77;53.95
20628;BME280;10473;42.734;24.258;2023-02-12T08:06:14;92583.91;;;1.68;54.18
20628;BME280;10473;42.734;24.258;2023-02-12T08:08:42;92586.91;;;1.76;54.69
20628;BME280;10473;42.734;24.258;2023-02-12T08:11:12;92600.31;;;1.83;55.03
20628;BME280;10473;42.734;24.258;2023-02-12T08:13:40;92574.53;;;1.67;54.03
20628;BME280;10473;42.734;24.258;2023-02-12T08:16:09;92582.38;;;1.67;54.27
20628;BME280;10473;42.734;24.258;2023-02-12T08:18:39;92586.78;;;1.81;53.87
20628;BME280;10473;42.734;24.258;2023-02-12T08:21:07;92604.38;;;1.88;54.69
20628;BME280;10473;42.734;24.258;2023-02-12T08:23:36;92600.16;;;1.79;53.26
20628;BME280;10473;42.734;24.258;2023-02-12T08:26:05;92591.19;;;1.93;53.87
20628;BME280;10473;42.734;24.258;2023-02-12T08:28:34;92589.66;;;1.92;54.05
20628;BME280;10473;42.734;24.258;2023-02-12T08:31:02;92585.50;;;1.92;53.19
20628;BME280;10473;42.734;24.258;2023-02-12T08:33:31;92588.91;;;1.78;54.55
20628;BME280;10473;42.734;24.258;2023-02-12T08:36:06;92600.66;;;2.03;54.62
20628;BME280;10473;42.734;24.258;2023-02-12T08:38:35;92605.94;;;2.12;53.78
20628;BME280;10473;42.734;24.258;2023-02-12T08:41:04;92614.13;;;2.18;54.79
20628;BME280;10473;42.734;24.258;2023-02-12T08:43:33;92617.78;;;2.31;53.21
20628;BME280;10473;42.734;24.258;2023-02-12T08:46:02;92631.25;;;2.47;52.39
20628;BME280;10473;42.734;24.258;2023-02-12T08:48:30;92637.50;;;2.59;52.73
20628;BME280;10473;42.734;24.258;2023-02-12T08:51:05;92639.47;;;2.76;52.23
20628;BME280;10473;42.734;24.258;2023-02-12T08:53:34;92643.72;;;2.94;53.05
20628;BME280;10473;42.734;24.258;2023-02-12T08:56:02;92645.72;;;2.97;52.78
20628;BME280;10473;42.734;24.258;2023-02-12T08:58:30;92639.66;;;3.10;51.59
20628;BME280;10473;42.734;24.258;2023-02-12T09:00:57;92631.25;;;3.30;51.48
20628;BME280;10473;42.734;24.258;2023-02-12T09:03:25;92622.03;;;3.32;51.11
20628;BME280;10473;42.734;24.258;2023-02-12T09:05:53;92638.41;;;3.38;52.17
20628;BME280;10473;42.734;24.258;2023-02-12T09:08:22;92626.69;;;3.44;49.82
20628;BME280;10473;42.734;24.258;2023-02-12T09:10:50;92645.41;;;3.68;49.15
20628;BME280;10473;42.734;24.258;2023-02-12T09:13:17;92642.81;;;3.68;49.96
20628;BME280;10473;42.734;24.258;2023-02-12T09:15:45;92651.75;;;3.75;49.99
20628;BME280;10473;42.734;24.258;2023-02-12T09:18:13;92657.44;;;3.69;50.94
20628;BME280;10473;42.734;24.258;2023-02-12T09:20:43;92665.75;;;3.71;50.89
20628;BME280;10473;42.734;24.258;2023-02-12T09:23:13;92659.41;;;3.63;50.70
20628;BME280;10473;42.734;24.258;2023-02-12T09:25:44;92663.34;;;3.83;50.70
20628;BME280;10473;42.734;24.258;2023-02-12T09:28:13;92665.19;;;3.91;50.21
20628;BME280;10473;42.734;24.258;2023-02-12T09:30:41;92666.28;;;3.98;49.84
20628;BME280;10473;42.734;24.258;2023-02-12T09:33:09;92660.88;;;3.95;49.18
20628;BME280;10473;42.734;24.258;2023-02-12T09:35:38;92670.16;;;4.01;50.29
20628;BME280;10473;42.734;24.258;2023-02-12T09:38:07;92673.34;;;3.81;50.09
20628;BME280;10473;42.734;24.258;2023-02-12T09:40:39;92674.28;;;3.93;50.04
20628;BME280;10473;42.734;24.258;2023-02-12T09:43:16;92675.38;;;4.01;49.57
20628;BME280;10473;42.734;24.258;2023-02-12T09:45:50;92671.72;;;4.19;49.74
20628;BME280;10473;42.734;24.258;2023-02-12T09:48:47;92678.50;;;4.20;49.07
20628;BME280;10473;42.734;24.258;2023-02-12T09:51:22;92684.81;;;4.02;49.91
20628;BME280;10473;42.734;24.258;2023-02-12T09:54:00;92681.91;;;4.12;50.46
20628;BME280;10473;42.734;24.258;2023-02-12T09:56:30;92684.31;;;3.83;50.36
20628;BME280;10473;42.734;24.258;2023-02-12T09:59:01;92676.91;;;3.85;51.07
20628;BME280;10473;42.734;24.258;2023-02-12T10:01:31;92675.97;;;3.81;49.84
20628;BME280;10473;42.734;24.258;2023-02-12T10:04:00;92678.84;;;4.27;49.93
20628;BME280;10473;42.734;24.258;2023-02-12T10:06:32;92687.31;;;4.32;49.21
20628;BME280;10473;42.734;24.258;2023-02-12T10:09:13;92677.94;;;4.57;48.23
20628;BME280;10473;42.734;24.258;2023-02-12T10:11:52;92672.97;;;4.72;49.18
20628;BME280;10473;42.734;24.258;2023-02-12T10:14:51;92671.59;;;4.92;48.43
20628;BME280;10473;42.734;24.258;2023-02-12T10:17:32;92668.88;;;5.26;46.42
20628;BME280;10473;42.734;24.258;2023-02-12T10:20:21;92666.53;;;5.33;46.51
20628;BME280;10473;42.734;24.258;2023-02-12T10:23:00;92668.25;;;5.29;44.22
20628;BME280;10473;42.734;24.258;2023-02-12T10:25:34;92672.19;;;5.06;43.55
20628;BME280;10473;42.734;24.258;2023-02-12T10:28:10;92681.28;;;5.08;45.97
20628;BME280;10473;42.734;24.258;2023-02-12T10:30:43;92676.06;;;4.91;46.02
20628;BME280;10473;42.734;24.258;2023-02-12T10:33:18;92672.31;;;5.18;45.59
20628;BME280;10473;42.734;24.258;2023-02-12T10:35:50;92672.44;;;5.21;45.88
20628;BME280;10473;42.734;24.258;2023-02-12T10:38:22;92655.75;;;5.26;45.97
20628;BME280;10473;42.734;24.258;2023-02-12T10:40:52;92672.31;;;5.18;44.98
20628;BME280;10473;42.734;24.258;2023-02-12T10:43:24;92672.78;;;5.66;44.08
20628;BME280;10473;42.734;24.258;2023-02-12T10:45:53;92674.75;;;5.69;44.16
20628;BME280;10473;42.734;24.258;2023-02-12T10:48:23;92676.25;;;6.45;43.50
20628;BME280;10473;42.734;24.258;2023-02-12T10:51:01;92672.16;;;6.88;42.15
20628;BME280;10473;42.734;24.258;2023-02-12T10:53:32;92670.22;;;8.58;39.40
20628;BME280;10473;42.734;24.258;2023-02-12T10:56:11;92675.56;;;9.72;36.83
20628;BME280;10473;42.734;24.258;2023-02-12T10:58:41;92685.72;;;10.13;34.55
20628;BME280;10473;42.734;24.258;2023-02-12T11:01:16;92686.53;;;10.82;33.92
20628;BME280;10473;42.734;24.258;2023-02-12T11:03:47;92683.13;;;11.58;32.36
20628;BME280;10473;42.734;24.258;2023-02-12T11:06:17;92696.69;;;13.80;30.30
20628;BME280;10473;42.734;24.258;2023-02-12T11:08:45;92673.94;;;14.26;29.11
20628;BME280;10473;42.734;24.258;2023-02-12T11:11:15;92690.28;;;14.21;28.83
20628;BME280;10473;42.734;24.258;2023-02-12T11:13:51;92688.53;;;13.66;29.41
20628;BME280;10473;42.734;24.258;2023-02-12T11:16:33;92685.72;;;12.67;29.75
20628;BME280;10473;42.734;24.258;2023-02-12T11:19:04;92681.22;;;12.45;30.53
20628;BME280;10473;42.734;24.258;2023-02-12T11:21:36;92679.09;;;12.09;31.57
20628;BME280;10473;42.734;24.258;2023-02-12T11:24:31;92680.81;;;11.75;32.48
20628;BME280;10473;42.734;24.258;2023-02-12T11:27:21;92676.81;;;12.30;32.72
20628;BME280;10473;42.734;24.258;2023-02-12T11:30:12;92678.88;;;14.27;30.12
20628;BME280;10473;42.734;24.258;2023-02-12T11:32:41;92687.97;;;15.31;27.06
20628;BME280;10473;42.734;24.258;2023-02-12T11:35:13;92687.94;;;18.11;24.59
20628;BME280;10473;42.734;24.258;2023-02-12T11:37:45;92687.66;;;19.48;24.52
20628;BME280;10473;42.734;24.258;2023-02-12T11:40:17;92699.81;;;20.76;22.50
20628;BME280;10473;42.734;24.258;2023-02-12T11:42:49;92696.25;;;21.94;21.21
20628;BME280;10473;42.734;24.258;2023-02-12T11:45:20;92690.59;;;22.24;20.23
20628;BME280;10473;42.734;24.258;2023-02-12T11:47:50;92696.03;;;22.40;20.42
20628;BME280;10473;42.734;24.258;2023-02-12T11:50:24;92689.13;;;23.06;20.38
20628;BME280;10473;42.734;24.258;2023-02-12T11:52:57;92697.56;;;22.41;18.96
20628;BME280;10473;42.734;24.258;2023-02-12T11:55:28;92689.16;;;21.38;19.80
20628;BME280;10473;42.734;24.258;2023-02-12T11:58:02;92686.97;;;19.74;21.77
20628;BME280;10473;42.734;24.258;2023-02-12T12:00:34;92676.31;;;18.38;22.56
20628;BME280;10473;42.734;24.258;2023-02-12T12:03:10;92682.16;;;18.19;22.49
20628;BME280;10473;42.734;24.258;2023-02-12T12:05:44;92660.63;;;18.81;22.59
20628;BME280;10473;42.734;24.258;2023-02-12T12:08:19;92667.53;;;17.55;23.45
20628;BME280;10473;42.734;24.258;2023-02-12T12:10:50;92664.19;;;16.01;24.43
20628;BME280;10473;42.734;24.258;2023-02-12T12:13:24;92661.97;;;16.73;23.48
20628;BME280;10473;42.734;24.258;2023-02-12T12:16:05;92683.75;;;16.54;24.19
20628;BME280;10473;42.734;24.258;2023-02-12T12:18:57;92678.03;;;16.45;24.08
20628;BME280;10473;42.734;24.258;2023-02-12T12:21:46;92685.22;;;17.18;23.95
20628;BME280;10473;42.734;24.258;2023-02-12T12:24:19;92692.72;;;18.51;22.93
20628;BME280;10473;42.734;24.258;2023-02-12T12:26:52;92686.66;;;17.61;22.88
20628;BME280;10473;42.734;24.258;2023-02-12T12:29:44;92703.56;;;16.32;24.87
20628;BME280;10473;42.734;24.258;2023-02-12T12:32:15;92704.59;;;15.71;24.69
20628;BME280;10473;42.734;24.258;2023-02-12T12:34:47;92691.66;;;15.84;25.30
20628;BME280;10473;42.734;24.258;2023-02-12T12:37:27;92687.13;;;14.59;26.77
20628;BME280;10473;42.734;24.258;2023-02-12T12:40:12;92696.81;;;13.57;27.49
20628;BME280;10473;42.734;24.258;2023-02-12T12:43:02;92689.66;;;11.83;28.61
20628;BME280;10473;42.734;24.258;2023-02-12T12:46:02;92685.91;;;10.89;29.60
20628;BME280;10473;42.734;24.258;2023-02-12T12:48:51;92680.38;;;9.82;32.54
20628;BME280;10473;42.734;24.258;2023-02-12T12:51:31;92698.97;;;9.70;33.91
20628;BME280;10473;42.734;24.258;2023-02-12T12:54:20;92694.19;;;9.60;33.91
20628;BME280;10473;42.734;24.258;2023-02-12T12:57:00;92687.97;;;9.40;33.52
20628;BME280;10473;42.734;24.258;2023-02-12T12:59:50;92696.13;;;9.20;34.31
20628;BME280;10473;42.734;24.258;2023-02-12T13:02:50;92701.97;;;8.86;34.26
20628;BME280;10473;42.734;24.258;2023-02-12T13:08:46;92702.16;;;8.29;34.91
20628;BME280;10473;42.734;24.258;2023-02-12T13:11:27;92705.34;;;8.23;36.88
20628;BME280;10473;42.734;24.258;2023-02-12T13:14:05;92710.38;;;7.92;35.84
20628;BME280;10473;42.734;24.258;2023-02-12T13:16:38;92717.41;;;8.12;36.02
20628;BME280;10473;42.734;24.258;2023-02-12T13:19:15;92714.53;;;7.81;35.16
20628;BME280;10473;42.734;24.258;2023-02-12T13:21:50;92726.72;;;7.85;34.88
20628;BME280;10473;42.734;24.258;2023-02-12T13:24:30;92715.19;;;7.78;36.09
20628;BME280;10473;42.734;24.258;2023-02-12T13:27:04;92736.84;;;7.51;37.42
20628;BME280;10473;42.734;24.258;2023-02-12T13:29:37;92738.41;;;7.52;38.03